createdAt,value
2019-01-11T00:00:00.444Z,101176.98
2019-01-11T00:02:31.019Z,101170.80
2019-01-11T00:05:01.346Z,101179.50
2019-01-11T00:07:31.707Z,101186.27
2019-01-11T00:10:02.713Z,101174.38
2019-01-11T00:12:35.170Z,101171.77
2019-01-11T00:15:06.330Z,101174.84
2019-01-11T00:17:37.077Z,101174.38
2019-01-11T00:20:15.688Z,101174.84
2019-01-11T00:22:46.066Z,101173.25
2019-01-11T00:25:16.442Z,101171.81
2019-01-11T00:27:48.639Z,101168.13
2019-01-11T00:30:18.997Z,101164.27
2019-01-11T00:32:49.751Z,101169.39
2019-01-11T00:35:22.003Z,101163.36
2019-01-11T00:37:53.322Z,101161.28
2019-01-11T00:40:24.210Z,101159.89
2019-01-11T00:42:59.873Z,101159.89
2019-01-11T00:45:30.544Z,101153.72
2019-01-11T00:48:06.663Z,101153.95
2019-01-11T00:50:37.169Z,101148.94
2019-01-11T00:53:09.614Z,101144.11
2019-01-11T00:55:41.672Z,101146.55
2019-01-11T00:58:30.938Z,101135.45
2019-01-11T01:01:01.995Z,101130.03
2019-01-11T01:03:33.931Z,101142.73
2019-01-11T01:06:05.502Z,101138.06
2019-01-11T01:08:36.097Z,101141.09
2019-01-11T01:11:07.786Z,101132.13
2019-01-11T01:13:38.225Z,101137.19
2019-01-11T01:16:08.959Z,101137.00
2019-01-11T01:18:39.410Z,101138.06
2019-01-11T01:21:09.763Z,101131.25
2019-01-11T01:23:40.057Z,101137.37
2019-01-11T01:26:10.554Z,101134.20
2019-01-11T01:28:41.931Z,101131.47
2019-01-11T01:31:12.248Z,101133.95
2019-01-11T01:33:42.631Z,101129.47
2019-01-11T01:36:13.008Z,101128.13
2019-01-11T01:38:43.424Z,101131.81
2019-01-11T01:41:13.782Z,101122.45
2019-01-11T01:43:44.160Z,101125.05
2019-01-11T01:46:15.628Z,101125.39
2019-01-11T01:48:45.990Z,101125.00
2019-01-11T01:51:16.301Z,101128.69
2019-01-11T01:53:47.466Z,101126.22
2019-01-11T01:56:18.037Z,101122.66
2019-01-11T01:58:48.489Z,101125.36
2019-01-11T02:01:18.956Z,101120.80
2019-01-11T02:03:49.328Z,101119.84
2019-01-11T02:06:20.173Z,101117.64
2019-01-11T02:08:50.543Z,101118.69
2019-01-11T02:11:20.855Z,101110.80
2019-01-11T02:13:51.542Z,101112.30
2019-01-11T02:16:22.210Z,101116.25
2019-01-11T02:18:52.682Z,101108.80
2019-01-11T02:21:24.397Z,101116.38
2019-01-11T02:23:54.874Z,101112.74
2019-01-11T02:26:25.320Z,101119.77
2019-01-11T02:28:55.607Z,101116.38
2019-01-11T02:31:26.061Z,101109.48
2019-01-11T02:33:56.412Z,101106.42
2019-01-11T02:36:26.838Z,101109.48
2019-01-11T02:38:57.273Z,101105.28
2019-01-11T02:41:27.660Z,101099.66
2019-01-11T02:43:58.056Z,101102.64
2019-01-11T02:46:28.475Z,101103.55
2019-01-11T02:48:58.821Z,101101.20
2019-01-11T02:51:29.328Z,101103.30
2019-01-11T02:53:59.791Z,101096.27
2019-01-11T02:56:30.176Z,101091.46
2019-01-11T02:59:00.548Z,101082.61
2019-01-11T03:01:30.953Z,101083.31
2019-01-11T03:04:01.347Z,101075.52
2019-01-11T03:06:31.730Z,101081.23
2019-01-11T03:09:02.002Z,101076.50
2019-01-11T03:11:33.186Z,101078.54
2019-01-11T03:14:04.083Z,101073.69
2019-01-11T03:16:34.579Z,101071.09
2019-01-11T03:19:05.347Z,101071.61
2019-01-11T03:21:35.783Z,101065.06
2019-01-11T03:24:06.174Z,101065.36
2019-01-11T03:26:36.952Z,101062.85
2019-01-11T03:29:07.410Z,101062.45
2019-01-11T03:31:37.935Z,101050.58
2019-01-11T03:34:08.622Z,101049.33
2019-01-11T03:36:38.946Z,101051.75
2019-01-11T03:39:10.970Z,101045.95
2019-01-11T03:41:57.355Z,101043.16
2019-01-11T03:44:27.784Z,101040.31
2019-01-11T03:46:58.441Z,101040.89
2019-01-11T03:49:28.910Z,101040.23
2019-01-11T03:51:59.306Z,101040.02
2019-01-11T03:54:30.079Z,101039.02
2019-01-11T03:57:00.405Z,101034.70
2019-01-11T03:59:30.799Z,101033.66
2019-01-11T04:02:01.143Z,101039.50
2019-01-11T04:04:31.538Z,101035.69
2019-01-11T04:07:01.861Z,101036.00
2019-01-11T04:09:32.304Z,101029.06
2019-01-11T04:12:02.664Z,101018.92
2019-01-11T04:14:32.980Z,101025.34
2019-01-11T04:17:03.374Z,101020.66
2019-01-11T04:19:33.782Z,101012.95
2019-01-11T04:22:21.282Z,101019.05
2019-01-11T04:25:16.426Z,101019.02
2019-01-11T04:27:47.609Z,101015.98
2019-01-11T04:30:19.345Z,101003.80
2019-01-11T04:32:49.775Z,101001.60
2019-01-11T04:35:20.508Z,100995.48
2019-01-11T04:37:50.870Z,101002.90
2019-01-11T04:40:21.931Z,100993.37
2019-01-11T04:42:52.309Z,100997.05
2019-01-11T04:45:22.622Z,100976.35
2019-01-11T04:48:25.833Z,100989.34
2019-01-11T04:50:56.258Z,100982.59
2019-01-11T04:53:26.654Z,100978.78
2019-01-11T04:55:57.031Z,100973.09
2019-01-11T04:58:27.429Z,100977.30
2019-01-11T05:00:57.817Z,100973.06
2019-01-11T05:03:28.434Z,100971.80
2019-01-11T05:06:00.713Z,100969.71
2019-01-11T05:08:31.574Z,100964.40
2019-01-11T05:11:01.888Z,100957.25
2019-01-11T05:13:40.000Z,100957.11
2019-01-11T05:16:10.836Z,100956.55
2019-01-11T05:18:41.294Z,100954.41
2019-01-11T05:21:11.767Z,100956.47
2019-01-11T05:23:42.153Z,100948.10
2019-01-11T05:26:12.694Z,100946.92
2019-01-11T05:28:43.387Z,100948.17
2019-01-11T05:31:13.867Z,100938.20
2019-01-11T05:33:44.231Z,100936.47
2019-01-11T05:36:14.982Z,100938.09
2019-01-11T05:38:45.311Z,100931.46
2019-01-11T05:41:15.917Z,100929.02
2019-01-11T05:43:46.323Z,100931.47
2019-01-11T05:46:16.702Z,100923.48
2019-01-11T05:48:47.194Z,100914.38
2019-01-11T05:51:17.565Z,100915.53
2019-01-11T05:53:47.942Z,100909.17
2019-01-11T05:56:20.518Z,100905.08
2019-01-11T05:58:54.041Z,100907.11
2019-01-11T06:01:24.676Z,100897.38
2019-01-11T06:03:56.829Z,100895.83
2019-01-11T06:06:29.118Z,100887.27
2019-01-11T06:08:59.923Z,100893.19
2019-01-11T06:11:30.402Z,100886.50
2019-01-11T06:14:02.897Z,100886.93
2019-01-11T06:16:33.322Z,100877.64
2019-01-11T06:19:03.731Z,100879.71
2019-01-11T06:21:34.207Z,100867.87
2019-01-11T06:24:04.615Z,100865.65
2019-01-11T06:26:34.998Z,100873.02
2019-01-11T06:29:05.504Z,100862.72
2019-01-11T06:31:35.911Z,100862.47
2019-01-11T06:34:06.373Z,100865.88
2019-01-11T06:36:37.385Z,100854.91
2019-01-11T06:39:09.054Z,100862.86
2019-01-11T06:41:45.142Z,100858.23
2019-01-11T06:44:16.150Z,100860.20
2019-01-11T06:46:46.713Z,100855.78
2019-01-11T06:49:17.300Z,100854.34
2019-01-11T06:51:48.146Z,100857.13
2019-01-11T06:54:19.050Z,100849.76
2019-01-11T06:56:49.383Z,100849.63
2019-01-11T06:59:19.827Z,100853.23
2019-01-11T07:01:50.240Z,100854.38
2019-01-11T07:04:21.182Z,100845.47
2019-01-11T07:06:52.613Z,100843.36
2019-01-11T07:09:23.551Z,100844.22
2019-01-11T07:11:54.506Z,100844.03
2019-01-11T07:14:24.953Z,100848.02
2019-01-11T07:16:55.432Z,100854.03
2019-01-11T07:19:26.154Z,100848.70
2019-01-11T07:22:06.951Z,100851.05
2019-01-11T07:24:37.530Z,100845.14
2019-01-11T07:27:08.553Z,100843.31
2019-01-11T07:29:39.475Z,100846.41
2019-01-11T07:32:10.131Z,100836.86
2019-01-11T07:34:40.464Z,100844.89
2019-01-11T07:37:10.899Z,100841.47
2019-01-11T07:39:41.597Z,100839.52
2019-01-11T07:42:12.485Z,100826.30
2019-01-11T07:44:43.063Z,100827.55
2019-01-11T07:47:13.621Z,100833.31
2019-01-11T07:49:45.685Z,100825.45
2019-01-11T07:52:16.170Z,100826.38
2019-01-11T07:54:46.599Z,100823.97
2019-01-11T07:57:17.037Z,100829.14
2019-01-11T07:59:47.425Z,100819.60
2019-01-11T08:02:18.696Z,100820.85
2019-01-11T08:04:48.984Z,100819.01
2019-01-11T08:07:19.896Z,100815.97
2019-01-11T08:09:51.239Z,100817.99
2019-01-11T08:12:24.147Z,100811.98
2019-01-11T08:14:54.582Z,100806.87
2019-01-11T08:17:25.165Z,100804.77
2019-01-11T08:19:55.777Z,100804.59
2019-01-11T08:22:40.692Z,100795.32
2019-01-11T08:25:12.242Z,100789.70
2019-01-11T08:27:47.592Z,100796.30
2019-01-11T08:30:18.857Z,100784.58
2019-01-11T08:32:49.253Z,100781.72
2019-01-11T08:35:19.679Z,100781.28
2019-01-11T08:37:50.598Z,100778.47
2019-01-11T08:40:20.965Z,100779.17
2019-01-11T08:42:51.973Z,100783.35
2019-01-11T08:45:22.349Z,100785.87
2019-01-11T08:47:52.833Z,100769.67
2019-01-11T08:50:23.421Z,100772.87
2019-01-11T08:52:55.975Z,100766.86
2019-01-11T08:55:26.547Z,100769.27
2019-01-11T08:57:58.880Z,100763.42
2019-01-11T09:00:29.493Z,100773.70
2019-01-11T09:03:00.050Z,100769.61
2019-01-11T09:05:30.578Z,100753.18
2019-01-11T09:08:00.947Z,100764.55
2019-01-11T09:10:32.824Z,100757.01
2019-01-11T09:13:03.131Z,100758.94
2019-01-11T09:15:34.616Z,100765.34
2019-01-11T09:18:15.911Z,100775.58
2019-01-11T09:20:46.801Z,100776.33
2019-01-11T09:23:17.237Z,100770.78
2019-01-11T09:25:47.765Z,100776.98
2019-01-11T09:28:20.001Z,100778.88
2019-01-11T09:30:51.037Z,100773.36
2019-01-11T09:33:21.576Z,100772.47
2019-01-11T09:35:52.581Z,100775.77
2019-01-11T09:38:22.939Z,100779.06
2019-01-11T09:40:56.281Z,100759.34
2019-01-11T09:43:26.681Z,100766.55
2019-01-11T09:45:58.362Z,100763.89
2019-01-11T09:48:30.167Z,100766.52
2019-01-11T09:51:02.038Z,100766.38
2019-01-11T09:53:32.639Z,100763.84
2019-01-11T09:56:03.671Z,100758.84
2019-01-11T09:58:36.747Z,100762.42
2019-01-11T10:01:08.475Z,100764.45
2019-01-11T10:03:39.343Z,100753.78
2019-01-11T10:06:10.472Z,100754.83
2019-01-11T10:08:40.895Z,100755.91
2019-01-11T10:11:12.006Z,100743.11
2019-01-11T10:13:43.838Z,100748.82
2019-01-11T10:16:16.451Z,100737.44
2019-01-11T10:18:46.750Z,100748.57
2019-01-11T10:21:22.344Z,100733.42
2019-01-11T10:23:52.762Z,100725.27
2019-01-11T10:26:25.008Z,100733.81
2019-01-11T10:28:55.326Z,100730.78
2019-01-11T10:31:25.641Z,100722.86
2019-01-11T10:33:56.203Z,100718.33
2019-01-11T10:36:26.553Z,100716.95
2019-01-11T10:38:56.909Z,100717.02
2019-01-11T10:41:27.876Z,100711.32
2019-01-11T10:43:59.044Z,100710.44
2019-01-11T10:46:35.216Z,100703.68
2019-01-11T10:49:06.097Z,100708.22
2019-01-11T10:51:36.834Z,100694.75
2019-01-11T10:54:08.859Z,100700.70
2019-01-11T10:56:41.974Z,100694.87
2019-01-11T10:59:12.426Z,100694.75
2019-01-11T11:01:42.846Z,100691.84
2019-01-11T11:04:13.606Z,100688.47
2019-01-11T11:06:44.181Z,100683.77
2019-01-11T11:09:16.503Z,100682.48
2019-01-11T11:14:24.191Z,100671.98
2019-01-11T11:16:54.580Z,100663.42
2019-01-11T11:19:24.991Z,100651.23
2019-01-11T11:21:55.328Z,100651.64
2019-01-11T11:24:29.345Z,100639.12
2019-01-11T11:26:59.885Z,100635.27
2019-01-11T11:29:30.226Z,100634.89
2019-01-11T11:32:00.562Z,100628.77
2019-01-11T11:34:32.708Z,100615.52
2019-01-11T11:37:04.186Z,100613.76
2019-01-11T11:39:34.563Z,100609.32
2019-01-11T11:42:04.858Z,100590.92
2019-01-11T11:44:36.082Z,100606.96
2019-01-11T11:47:09.230Z,100605.84
2019-01-11T11:49:40.770Z,100597.28
2019-01-11T11:52:12.298Z,100601.73
2019-01-11T11:54:43.022Z,100595.95
2019-01-11T11:57:14.688Z,100597.64
2019-01-11T11:59:45.899Z,100587.05
2019-01-11T12:02:19.389Z,100585.62
2019-01-11T12:04:48.415Z,100581.80
2019-01-11T12:07:19.477Z,100591.69
2019-01-11T12:09:49.838Z,100598.30
2019-01-11T12:12:20.330Z,100589.36
2019-01-11T12:14:50.704Z,100594.64
2019-01-11T12:17:20.993Z,100587.02
2019-01-11T12:19:51.368Z,100586.77
2019-01-11T12:22:23.003Z,100581.42
2019-01-11T12:24:53.592Z,100583.30
2019-01-11T12:27:23.886Z,100571.47
2019-01-11T12:29:55.151Z,100566.48
2019-01-11T12:32:26.084Z,100549.32
2019-01-11T12:34:56.888Z,100551.09
2019-01-11T12:37:27.290Z,100546.59
2019-01-11T12:39:58.155Z,100543.24
2019-01-11T12:42:28.708Z,100537.48
2019-01-11T12:44:59.744Z,100528.19
2019-01-11T12:47:30.149Z,100532.25
2019-01-11T12:50:00.569Z,100518.34
2019-01-11T12:52:30.882Z,100508.17
2019-01-11T12:55:01.347Z,100512.36
2019-01-11T12:57:32.039Z,100493.73
2019-01-11T13:00:02.404Z,100486.63
2019-01-11T13:02:33.354Z,100493.02
2019-01-11T13:05:05.101Z,100487.24
2019-01-11T13:07:35.530Z,100475.75
2019-01-11T13:10:07.239Z,100477.58
2019-01-11T13:12:38.212Z,100473.66
2019-01-11T13:15:10.992Z,100478.47
2019-01-11T13:17:41.488Z,100481.80
2019-01-11T13:20:13.447Z,100477.30
2019-01-11T13:22:43.956Z,100471.66
2019-01-11T13:25:14.749Z,100473.59
2019-01-11T13:27:45.995Z,100461.00
2019-01-11T13:30:17.612Z,100466.72
2019-01-11T13:32:50.565Z,100466.86
2019-01-11T13:35:20.878Z,100468.17
2019-01-11T13:37:51.451Z,100459.62
2019-01-11T13:40:23.809Z,100449.41
2019-01-11T13:42:54.753Z,100449.20
2019-01-11T13:45:25.476Z,100449.84
2019-01-11T13:47:56.074Z,100446.89
2019-01-11T13:50:34.395Z,100449.51
2019-01-11T13:53:06.108Z,100450.71
2019-01-11T13:55:36.582Z,100444.84
2019-01-11T13:58:07.514Z,100448.10
2019-01-11T14:00:37.903Z,100438.53
2019-01-11T14:03:08.598Z,100439.22
2019-01-11T14:05:38.906Z,100436.09
2019-01-11T14:08:09.285Z,100440.27
2019-01-11T14:10:40.174Z,100434.09
2019-01-11T14:13:10.598Z,100430.13
2019-01-11T14:15:40.983Z,100435.20
2019-01-11T14:18:11.880Z,100426.25
2019-01-11T14:20:42.173Z,100435.13
2019-01-11T14:23:12.913Z,100430.30
2019-01-11T14:25:43.694Z,100420.00
2019-01-11T14:28:14.134Z,100424.63
2019-01-11T14:30:44.462Z,100425.15
2019-01-11T14:33:14.872Z,100412.91
2019-01-11T14:35:45.265Z,100420.37
2019-01-11T14:38:16.048Z,100415.64
2019-01-11T14:40:46.407Z,100415.72
2019-01-11T14:43:16.854Z,100411.59
2019-01-11T14:45:47.214Z,100405.59
2019-01-11T14:48:17.596Z,100410.30
2019-01-11T14:50:48.490Z,100392.87
2019-01-11T14:53:18.989Z,100400.52
2019-01-11T14:55:49.462Z,100395.38
2019-01-11T14:58:20.424Z,100402.72
2019-01-11T15:00:50.750Z,100399.97
2019-01-11T15:03:21.225Z,100405.01
2019-01-11T15:05:56.755Z,100394.38
2019-01-11T15:08:27.214Z,100403.63
2019-01-11T15:10:58.032Z,100400.88
2019-01-11T15:13:28.412Z,100397.31
2019-01-11T15:15:59.218Z,100396.72
2019-01-11T15:18:29.603Z,100390.45
2019-01-11T15:21:01.786Z,100387.98
2019-01-11T15:23:32.167Z,100382.38
2019-01-11T15:26:03.457Z,100393.53
2019-01-11T15:28:33.948Z,100393.31
2019-01-11T15:31:04.333Z,100383.48
2019-01-11T15:33:34.706Z,100384.47
2019-01-11T15:36:05.292Z,100385.61
2019-01-11T15:38:35.770Z,100381.03
2019-01-11T15:41:06.169Z,100375.89
2019-01-11T15:43:38.258Z,100380.20
2019-01-11T15:46:15.060Z,100378.52
2019-01-11T15:48:47.020Z,100382.81
2019-01-11T15:51:19.393Z,100380.20
2019-01-11T15:53:50.264Z,100378.05
2019-01-11T15:56:29.693Z,100385.66
2019-01-11T15:59:00.634Z,100375.32
2019-01-11T16:01:32.748Z,100375.66
2019-01-11T16:04:10.488Z,100380.52
2019-01-11T16:06:42.625Z,100372.71
2019-01-11T16:10:16.875Z,100377.71
2019-01-11T16:13:00.573Z,100375.81
2019-01-11T16:15:50.829Z,100360.05
2019-01-11T16:18:27.156Z,100357.44
2019-01-11T16:21:01.154Z,100371.27
2019-01-11T16:23:31.523Z,100367.28
2019-01-11T16:26:01.960Z,100363.17
2019-01-11T16:28:32.331Z,100369.81
2019-01-11T16:31:02.645Z,100368.89
2019-01-11T16:33:33.031Z,100356.88
2019-01-11T16:36:06.146Z,100363.22
2019-01-11T16:38:36.557Z,100355.58
2019-01-11T16:41:07.365Z,100365.09
2019-01-11T16:43:37.760Z,100361.28
2019-01-11T16:46:08.845Z,100361.47
2019-01-11T16:48:39.172Z,100350.70
2019-01-11T16:51:09.668Z,100355.91
2019-01-11T16:53:40.036Z,100362.55
2019-01-11T16:56:10.401Z,100357.88
2019-01-11T16:58:40.794Z,100359.56
2019-01-11T17:01:11.900Z,100364.11
2019-01-11T17:03:42.387Z,100354.20
2019-01-11T17:06:12.789Z,100352.29
2019-01-11T17:08:43.154Z,100362.50
2019-01-11T17:11:13.686Z,100364.77
2019-01-11T17:13:43.988Z,100350.53
2019-01-11T17:16:14.537Z,100360.13
2019-01-11T17:18:45.247Z,100350.02
2019-01-11T17:21:16.653Z,100351.94
2019-01-11T17:23:46.989Z,100359.89
2019-01-11T17:26:17.303Z,100355.94
2019-01-11T17:28:48.103Z,100350.33
2019-01-11T17:31:18.479Z,100349.52
2019-01-11T17:33:48.763Z,100347.20
2019-01-11T17:36:45.552Z,100352.23
2019-01-11T17:39:15.895Z,100352.05
2019-01-11T17:41:46.357Z,100349.63
2019-01-11T17:44:17.173Z,100352.16
2019-01-11T17:46:47.610Z,100351.19
2019-01-11T17:49:17.990Z,100351.27
2019-01-11T17:51:48.390Z,100350.33
2019-01-11T17:54:18.784Z,100359.20
2019-01-11T17:56:49.158Z,100356.08
2019-01-11T17:59:19.918Z,100356.48
2019-01-11T18:01:50.835Z,100351.42
2019-01-11T18:04:21.299Z,100350.73
2019-01-11T18:06:52.758Z,100347.72
2019-01-11T18:09:23.389Z,100347.82
2019-01-11T18:11:53.769Z,100358.72
2019-01-11T18:14:24.184Z,100345.62
2019-01-11T18:16:54.515Z,100347.92
2019-01-11T18:19:24.913Z,100346.24
2019-01-11T18:21:56.342Z,100347.48
2019-01-11T18:24:26.701Z,100345.13
2019-01-11T18:26:57.062Z,100358.03
2019-01-11T18:29:27.511Z,100357.62
2019-01-11T18:31:57.984Z,100350.27
2019-01-11T18:34:28.381Z,100361.19
2019-01-11T18:36:58.659Z,100348.05
2019-01-11T18:39:29.126Z,100346.27
2019-01-11T18:41:59.509Z,100352.36
2019-01-11T18:44:29.812Z,100346.22
2019-01-11T18:47:00.208Z,100343.06
2019-01-11T18:49:30.529Z,100340.98
2019-01-11T18:52:00.909Z,100340.91
2019-01-11T18:54:31.277Z,100344.02
2019-01-11T18:57:02.211Z,100349.69
2019-01-11T18:59:32.851Z,100349.28
2019-01-11T19:02:03.501Z,100349.45
2019-01-11T19:04:33.818Z,100349.45
2019-01-11T19:07:04.542Z,100350.47
2019-01-11T19:09:34.954Z,100350.31
2019-01-11T19:12:05.304Z,100351.24
2019-01-11T19:14:36.115Z,100346.70
2019-01-11T19:17:07.010Z,100354.63
2019-01-11T19:19:37.594Z,100343.40
2019-01-11T19:22:07.983Z,100341.23
2019-01-11T19:24:40.102Z,100344.92
2019-01-11T19:27:11.055Z,100349.98
2019-01-11T19:29:43.653Z,100348.39
2019-01-11T19:32:14.465Z,100347.00
2019-01-11T19:34:45.228Z,100342.38
2019-01-11T19:37:15.560Z,100350.55
2019-01-11T19:39:45.985Z,100341.39
2019-01-11T19:42:16.827Z,100347.69
2019-01-11T19:44:47.402Z,100346.29
2019-01-11T19:47:17.816Z,100354.74
2019-01-11T19:49:48.240Z,100346.86
2019-01-11T19:52:18.658Z,100340.76
2019-01-11T19:54:49.136Z,100347.83
2019-01-11T19:57:19.905Z,100348.84
2019-01-11T19:59:50.253Z,100352.59
2019-01-11T20:02:20.735Z,100353.05
2019-01-11T20:04:51.145Z,100347.95
2019-01-11T20:07:21.598Z,100355.12
2019-01-11T20:10:49.218Z,100341.77
2019-01-11T20:13:19.608Z,100348.00
2019-01-11T20:15:49.953Z,100352.70
2019-01-11T20:18:20.987Z,100356.85
2019-01-11T20:20:51.429Z,100358.95
2019-01-11T20:23:21.824Z,100357.64
2019-01-11T20:25:52.316Z,100362.52
2019-01-11T20:28:22.862Z,100354.89
2019-01-11T20:30:53.291Z,100356.34
2019-01-11T20:33:23.811Z,100354.12
2019-01-11T20:35:54.246Z,100356.94
2019-01-11T20:38:24.641Z,100358.81
2019-01-11T20:40:55.117Z,100357.11
2019-01-11T20:43:25.481Z,100359.50
2019-01-11T20:45:55.847Z,100367.66
2019-01-11T20:48:26.273Z,100367.41
2019-01-11T20:50:56.575Z,100367.78
2019-01-11T20:53:27.368Z,100373.70
2019-01-11T20:55:57.899Z,100366.16
2019-01-11T20:58:28.253Z,100368.14
2019-01-11T21:00:58.731Z,100368.63
2019-01-11T21:03:29.147Z,100373.90
2019-01-11T21:06:01.663Z,100371.20
2019-01-11T21:08:32.117Z,100374.47
2019-01-11T21:11:02.472Z,100376.51
2019-01-11T21:13:32.886Z,100384.94
2019-01-11T21:16:03.225Z,100383.56
2019-01-11T21:18:33.602Z,100381.83
2019-01-11T21:21:10.183Z,100383.06
2019-01-11T21:23:48.718Z,100378.11
2019-01-11T21:26:26.974Z,100377.91
2019-01-11T21:28:58.162Z,100386.22
2019-01-11T21:31:30.137Z,100383.66
2019-01-11T21:34:02.603Z,100382.75
2019-01-11T21:36:34.206Z,100366.73
2019-01-11T21:39:07.833Z,100381.50
2019-01-11T21:41:38.993Z,100385.16
2019-01-11T21:44:10.061Z,100387.70
2019-01-11T21:46:41.555Z,100373.95
2019-01-11T21:49:13.104Z,100367.62
2019-01-11T21:51:44.640Z,100363.28
2019-01-11T21:54:15.925Z,100371.65
2019-01-11T21:56:47.337Z,100367.62
2019-01-11T21:59:18.502Z,100371.34
2019-01-11T22:01:54.606Z,100363.24
2019-01-11T22:04:26.109Z,100375.25
2019-01-11T22:07:01.071Z,100369.66
2019-01-11T22:09:32.386Z,100369.92
2019-01-11T22:12:05.563Z,100369.66
2019-01-11T22:14:37.557Z,100373.72
2019-01-11T22:17:09.386Z,100372.37
2019-01-11T22:19:41.938Z,100372.68
2019-01-11T22:22:16.834Z,100372.10
2019-01-11T22:24:47.917Z,100368.75
2019-01-11T22:27:19.448Z,100360.16
2019-01-11T22:29:50.849Z,100365.95
2019-01-11T22:32:23.213Z,100364.83
2019-01-11T22:34:55.340Z,100345.48
2019-01-11T22:37:26.858Z,100364.50
2019-01-11T22:40:00.657Z,100364.31
2019-01-11T22:42:32.710Z,100366.58
2019-01-11T22:45:12.002Z,100374.62
2019-01-11T22:47:43.739Z,100363.41
2019-01-11T22:50:15.066Z,100373.13
2019-01-11T22:52:47.354Z,100384.74
2019-01-11T22:55:19.573Z,100386.27
2019-01-11T22:57:52.679Z,100384.56
2019-01-11T23:00:50.942Z,100385.87
2019-01-11T23:03:28.747Z,100383.98
2019-01-11T23:06:10.067Z,100374.56
2019-01-11T23:08:40.738Z,100372.95
2019-01-11T23:11:41.910Z,100381.91
2019-01-11T23:14:12.791Z,100383.16
2019-01-11T23:16:57.375Z,100383.22
2019-01-11T23:19:27.693Z,100384.20
2019-01-11T23:21:58.439Z,100367.52
2019-01-11T23:24:31.775Z,100372.58
2019-01-11T23:27:02.070Z,100374.62
2019-01-11T23:29:32.833Z,100379.99
2019-01-11T23:32:03.268Z,100372.73
2019-01-11T23:34:33.623Z,100378.11
2019-01-11T23:37:04.047Z,100379.59
2019-01-11T23:39:34.384Z,100387.45
2019-01-11T23:42:04.916Z,100383.35
2019-01-11T23:44:36.552Z,100384.02
2019-01-11T23:47:08.287Z,100388.27
2019-01-11T23:49:38.600Z,100389.77
2019-01-11T23:52:09.066Z,100383.25
2019-01-11T23:54:39.552Z,100391.52
2019-01-11T23:57:17.444Z,100391.88
2019-01-11T23:59:47.897Z,100388.16
